Time;durP1;ratioP1;P1;durP2;ratioP2;P2;SDS_P1;SDS_P2;PMS_P1;PMS_P2;Temp;Humidity;BMP_temperature;BMP_pressure;BME280_temperature;BME280_humidity;BME280_pressure;Samples;Min_cycle;Max_cycle;Signal;HPM_P1;HPM_P2
2022/10/23 00:01:34;;;;;;;5.05;2.00;;;;;;;15.41;100.00;98898.72;4973330;28;20030;-62
2022/10/23 00:04:02;;;;;;;5.72;1.80;;;;;;;15.41;100.00;98883.00;4966170;28;20054;-63
2022/10/23 00:06:28;;;;;;;4.75;1.85;;;;;;;15.31;100.00;98878.72;4965286;28;20057;-61
2022/10/23 00:08:54;;;;;;;6.78;1.95;;;;;;;15.37;100.00;98878.09;4987012;28;20034;-61
2022/10/23 00:11:22;;;;;;;6.57;2.00;;;;;;;15.48;100.00;98886.53;4953412;28;20045;-60
2022/10/23 00:13:48;;;;;;;5.47;1.73;;;;;;;15.35;100.00;98860.88;4975530;28;20145;-60
2022/10/23 00:16:14;;;;;;;6.15;2.00;;;;;;;15.47;100.00;98900.66;4982803;28;20027;-59
2022/10/23 00:18:40;;;;;;;4.32;1.48;;;;;;;15.36;100.00;98899.19;4998477;28;20041;-59
2022/10/23 00:21:07;;;;;;;5.20;1.63;;;;;;;15.44;100.00;98900.97;4959762;28;20480;-60
2022/10/23 00:23:33;;;;;;;5.20;1.67;;;;;;;15.47;100.00;98900.66;4971663;28;20042;-61
2022/10/23 00:25:59;;;;;;;7.65;1.90;;;;;;;15.34;100.00;98885.47;4956787;28;20022;-60
2022/10/23 00:28:24;;;;;;;7.40;1.63;;;;;;;15.12;100.00;98879.13;4975154;28;20030;-61
2022/10/23 00:30:50;;;;;;;3.90;1.42;;;;;;;15.32;100.00;98918.88;4986282;28;20073;-59
2022/10/23 00:33:15;;;;;;;5.10;1.50;;;;;;;15.22;100.00;98915.59;4974739;28;20040;-59
2022/10/23 00:35:42;;;;;;;5.57;1.73;;;;;;;14.94;100.00;98872.28;4974773;28;20030;-60
2022/10/23 00:38:08;;;;;;;4.90;2.10;;;;;;;14.99;100.00;98874.41;4958442;28;20503;-61
2022/10/23 00:40:35;;;;;;;4.60;2.00;;;;;;;15.28;100.00;98907.09;4961127;28;20018;-62
2022/10/23 00:43:00;;;;;;;6.13;2.60;;;;;;;15.32;100.00;98911.00;4954670;28;20133;-61
2022/10/23 00:45:32;;;;;;;5.97;2.10;;;;;;;15.34;100.00;98924.75;4975538;28;20022;-62
2022/10/23 00:48:01;;;;;;;6.45;2.15;;;;;;;15.36;100.00;98920.97;4958275;28;20042;-61
2022/10/23 00:50:30;;;;;;;5.40;2.05;;;;;;;15.19;100.00;98920.19;4972365;28;20023;-59
2022/10/23 00:52:56;;;;;;;4.50;1.80;;;;;;;14.93;100.00;98877.69;4956995;28;20133;-61
2022/10/23 00:55:23;;;;;;;5.30;1.83;;;;;;;15.01;100.00;98884.72;4968586;28;20030;-60
2022/10/23 00:57:49;;;;;;;5.00;1.75;;;;;;;15.22;100.00;98919.03;4978300;28;20065;-59
2022/10/23 01:00:19;;;;;;;6.53;2.20;;;;;;;15.26;100.00;98948.34;4975605;28;20093;-58
2022/10/23 01:02:45;;;;;;;5.70;2.33;;;;;;;15.27;100.00;98942.94;4975551;28;20035;-58
2022/10/23 01:05:10;;;;;;;4.90;1.90;;;;;;;15.14;100.00;98937.41;4977650;28;20503;-59
2022/10/23 01:07:44;;;;;;;5.00;1.90;;;;;;;15.09;100.00;98935.25;4974719;28;20052;-58
2022/10/23 01:10:15;;;;;;;4.20;1.60;;;;;;;15.08;100.00;98930.22;4973888;28;20082;-58
2022/10/23 01:12:52;;;;;;;4.68;1.83;;;;;;;15.09;100.00;98916.94;4973808;28;20057;-58
2022/10/23 01:15:51;;;;;;;4.75;1.45;;;;;;;15.18;100.00;98942.13;4960971;28;20027;-59
2022/10/23 01:18:41;;;;;;;5.78;2.00;;;;;;;15.09;100.00;98940.50;4991383;28;20437;-59
2022/10/23 01:21:13;;;;;;;5.25;1.55;;;;;;;15.00;100.00;98933.63;4973686;28;20030;-58
2022/10/23 01:23:51;;;;;;;6.18;1.88;;;;;;;14.77;100.00;98910.75;4999022;28;20027;-59
2022/10/23 01:26:39;;;;;;;4.88;1.52;;;;;;;14.92;100.00;98924.00;4977584;28;20030;-59
2022/10/23 01:29:27;;;;;;;6.30;1.75;;;;;;;14.98;100.00;98919.91;4995893;28;20033;-58
2022/10/23 01:31:58;;;;;;;5.13;1.80;;;;;;;14.99;100.00;98914.50;4978991;28;20044;-60
2022/10/23 01:34:44;;;;;;;5.97;2.10;;;;;;;14.94;100.00;98908.94;4997425;28;20100;-59
2022/10/23 01:37:13;;;;;;;4.40;1.52;;;;;;;14.87;100.00;98901.91;4966866;28;20042;-61
2022/10/23 01:39:45;;;;;;;6.40;1.67;;;;;;;14.87;100.00;98913.19;4962129;28;20543;-60
2022/10/23 01:42:14;;;;;;;4.68;1.70;;;;;;;14.97;100.00;98945.28;4966835;28;20057;-59
2022/10/23 01:44:49;;;;;;;4.97;1.88;;;;;;;14.89;100.00;98945.25;4968183;28;20476;-58
2022/10/23 01:47:16;;;;;;;4.72;1.83;;;;;;;14.87;100.00;98949.84;4973088;28;20050;-60
2022/10/23 01:49:43;;;;;;;4.53;1.85;;;;;;;14.86;100.00;98934.28;4985775;28;20082;-58
2022/10/23 01:52:11;;;;;;;4.13;1.58;;;;;;;14.85;100.00;98936.09;4978634;28;20026;-58
2022/10/23 01:54:40;;;;;;;4.28;1.50;;;;;;;14.80;100.00;98931.38;4959335;28;20029;-58
2022/10/23 01:57:09;;;;;;;4.47;1.40;;;;;;;14.84;100.00;98931.03;4990758;28;20035;-59
2022/10/23 01:59:37;;;;;;;5.85;1.70;;;;;;;14.89;100.00;98928.75;4976316;28;20125;-59
2022/10/23 02:02:03;;;;;;;5.03;1.90;;;;;;;14.88;100.00;98927.94;4998040;28;20588;-61
2022/10/23 02:04:34;;;;;;;5.63;1.60;;;;;;;14.99;100.00;98924.97;5006865;28;20047;-60
2022/10/23 02:06:59;;;;;;;4.57;1.58;;;;;;;15.00;100.00;98915.31;4995906;28;20101;-60
2022/10/23 02:09:25;;;;;;;5.80;2.08;;;;;;;14.94;100.00;98908.13;4976351;28;20038;-60
2022/10/23 02:11:57;;;;;;;5.70;1.77;;;;;;;14.91;100.00;98900.59;4971547;28;20042;-61
2022/10/23 02:14:52;;;;;;;6.22;1.90;;;;;;;14.89;100.00;98900.75;4991384;28;20567;-59
2022/10/23 02:17:47;;;;;;;6.13;1.65;;;;;;;15.01;100.00;98914.34;4955220;28;20551;-61
2022/10/23 02:20:40;;;;;;;4.40;1.70;;;;;;;14.93;100.00;98909.09;4990860;28;20486;-60
2022/10/23 02:23:19;;;;;;;6.45;1.90;;;;;;;14.98;100.00;98915.47;4972465;28;20047;-61
2022/10/23 02:25:53;;;;;;;5.30;1.48;;;;;;;14.95;100.00;98907.16;4977449;28;20030;-59
2022/10/23 02:28:27;;;;;;;4.25;1.70;;;;;;;14.99;100.00;98903.22;4978246;28;20034;-60
2022/10/23 02:30:54;;;;;;;4.03;1.58;;;;;;;15.01;100.00;98908.28;4974292;28;20449;-63
2022/10/23 02:33:20;;;;;;;6.07;1.90;;;;;;;15.07;100.00;98910.25;4961067;28;20035;-60
2022/10/23 02:35:46;;;;;;;3.72;1.50;;;;;;;15.12;100.00;98919.22;4956865;28;20035;-60
2022/10/23 02:38:31;;;;;;;4.40;1.85;;;;;;;15.09;100.00;98919.56;4978517;28;20027;-60
2022/10/23 02:41:04;;;;;;;4.85;1.52;;;;;;;15.10;100.00;98915.97;4975622;28;20041;-60
2022/10/23 02:43:36;;;;;;;4.35;1.50;;;;;;;14.99;100.00;98903.22;4974494;28;20034;-60
2022/10/23 02:46:10;;;;;;;3.90;1.42;;;;;;;14.92;100.00;98910.09;4973659;28;20552;-61
2022/10/23 02:48:54;;;;;;;4.50;1.60;;;;;;;14.94;100.00;98903.69;4991378;28;20093;-59
2022/10/23 02:51:19;;;;;;;4.03;1.30;;;;;;;14.92;100.00;98910.91;4973566;28;20035;-60
2022/10/23 02:54:34;;;;;;;3.47;1.25;;;;;;;14.97;100.00;98911.22;4976351;28;20033;-60
2022/10/23 02:57:30;;;;;;;3.80;1.60;;;;;;;15.01;100.00;98898.63;4967837;28;20172;-60
2022/10/23 03:00:02;;;;;;;4.10;1.40;;;;;;;14.98;100.00;98891.91;4975654;28;20130;-60
2022/10/23 03:03:00;;;;;;;3.30;1.25;;;;;;;15.05;100.00;98899.13;4979463;28;20594;-61
2022/10/23 03:05:31;;;;;;;3.72;1.13;;;;;;;15.05;100.00;98894.69;4961168;28;20126;-62
2022/10/23 03:07:57;;;;;;;4.03;1.30;;;;;;;15.04;100.00;98887.00;4979960;28;20026;-60
2022/10/23 03:10:23;;;;;;;4.20;1.50;;;;;;;15.10;100.00;98894.19;4963419;28;20030;-59
2022/10/23 03:12:48;;;;;;;3.97;1.60;;;;;;;15.06;100.00;98892.88;5005013;28;20032;-60
2022/10/23 03:15:15;;;;;;;4.32;1.38;;;;;;;15.12;100.00;98898.28;4978255;28;20045;-62
2022/10/23 03:17:40;;;;;;;4.80;1.38;;;;;;;14.96;100.00;98880.78;4965728;28;20034;-62
2022/10/23 03:20:07;;;;;;;4.20;1.40;;;;;;;14.97;100.00;98884.25;4975370;28;20401;-60
2022/10/23 03:22:32;;;;;;;4.78;1.10;;;;;;;14.96;100.00;98878.16;4973823;28;20035;-62
2022/10/23 03:24:57;;;;;;;4.40;1.35;;;;;;;15.04;100.00;98893.06;4961358;28;20449;-60
2022/10/23 03:27:23;;;;;;;4.82;1.33;;;;;;;15.01;100.00;98882.91;4978543;28;20108;-60
2022/10/23 03:29:48;;;;;;;5.03;1.20;;;;;;;14.97;100.00;98895.53;4977523;28;20454;-59
2022/10/23 03:32:14;;;;;;;3.72;1.35;;;;;;;14.96;100.00;98893.88;4972901;28;20623;-59
2022/10/23 03:34:39;;;;;;;4.45;1.40;;;;;;;15.01;100.00;98901.25;4974768;28;20038;-59
2022/10/23 03:37:04;;;;;;;3.60;1.50;;;;;;;14.80;100.00;98863.31;4986968;28;20034;-59
2022/10/23 03:39:30;;;;;;;5.03;1.30;;;;;;;14.99;100.00;98883.09;4959966;28;20035;-59
2022/10/23 03:41:55;;;;;;;3.80;1.42;;;;;;;14.98;100.00;98878.00;4968206;28;20049;-59
2022/10/23 03:44:21;;;;;;;5.50;1.60;;;;;;;14.97;100.00;98876.38;4974147;28;20113;-61
2022/10/23 03:46:46;;;;;;;4.20;1.40;;;;;;;14.94;100.00;98876.72;4976540;28;20103;-61
2022/10/23 03:49:11;;;;;;;3.55;1.27;;;;;;;14.94;100.00;98882.75;4973879;28;20029;-61
2022/10/23 03:51:40;;;;;;;3.60;1.30;;;;;;;14.94;100.00;98887.19;4971516;28;20502;-60
2022/10/23 03:54:06;;;;;;;5.50;1.40;;;;;;;14.96;100.00;98885.22;4974578;28;20065;-60
2022/10/23 03:56:32;;;;;;;4.53;1.42;;;;;;;15.02;100.00;98896.81;4976927;28;20485;-59
2022/10/23 03:58:57;;;;;;;4.10;1.45;;;;;;;14.94;100.00;98885.38;4978100;28;20034;-60
2022/10/23 04:01:23;;;;;;;4.00;1.20;;;;;;;14.97;100.00;98890.28;4973392;28;20031;-60
2022/10/23 04:03:48;;;;;;;4.60;1.40;;;;;;;14.70;100.00;98839.13;4969924;28;20030;-62
2022/10/23 04:06:13;;;;;;;2.97;1.10;;;;;;;15.17;100.00;98905.66;4974195;28;20037;-60
2022/10/23 04:08:42;;;;;;;4.78;1.30;;;;;;;15.09;100.00;98903.84;4975139;28;20038;-60
2022/10/23 04:11:07;;;;;;;4.72;1.10;;;;;;;15.07;100.00;98899.75;4954028;28;20027;-59
2022/10/23 04:13:33;;;;;;;4.93;1.50;;;;;;;15.05;100.00;98899.94;4974761;28;20058;-60
2022/10/23 04:15:58;;;;;;;3.75;1.20;;;;;;;14.69;100.00;98836.66;4973638;28;20485;-59
2022/10/23 04:18:23;;;;;;;3.42;1.20;;;;;;;15.09;100.00;98903.84;4976757;28;20031;-60
2022/10/23 04:20:49;;;;;;;3.53;1.30;;;;;;;15.12;100.00;98913.19;4974111;28;20486;-59
2022/10/23 04:23:15;;;;;;;4.50;1.00;;;;;;;15.13;100.00;98914.81;4977243;28;20069;-61
2022/10/23 04:25:41;;;;;;;3.50;1.10;;;;;;;15.05;100.00;98905.16;4975037;28;20638;-63
2022/10/23 04:28:06;;;;;;;4.55;1.33;;;;;;;15.07;100.00;98907.63;4989137;28;20039;-61
2022/10/23 04:30:31;;;;;;;3.42;1.33;;;;;;;14.95;100.00;98886.22;4961076;28;20037;-60
2022/10/23 04:32:57;;;;;;;4.63;1.23;;;;;;;15.03;100.00;98915.00;4974670;28;20550;-61
2022/10/23 04:35:22;;;;;;;4.00;1.48;;;;;;;14.97;100.00;98887.66;4995141;28;20060;-59
2022/10/23 04:37:48;;;;;;;3.10;1.13;;;;;;;15.12;100.00;98919.22;4976049;28;20034;-60
2022/10/23 04:40:13;;;;;;;2.85;1.10;;;;;;;15.12;100.00;98907.94;4972581;28;20385;-59
2022/10/23 04:42:38;;;;;;;3.67;1.13;;;;;;;15.10;100.00;98915.16;4958820;28;20648;-60
2022/10/23 04:45:05;;;;;;;3.63;1.15;;;;;;;15.10;100.00;98908.09;4981854;28;20048;-60
2022/10/23 04:47:30;;;;;;;3.90;1.20;;;;;;;15.06;100.00;98903.34;4972560;28;20757;-61
2022/10/23 04:49:56;;;;;;;3.45;1.27;;;;;;;15.08;100.00;98899.59;4989314;28;20069;-59
2022/10/23 04:52:21;;;;;;;5.60;1.33;;;;;;;15.11;100.00;98898.44;4973972;28;20611;-62
2022/10/23 04:54:48;;;;;;;3.95;1.27;;;;;;;15.14;100.00;98911.22;4965841;28;20073;-60
2022/10/23 04:57:14;;;;;;;3.92;1.48;;;;;;;14.87;100.00;98867.88;4961117;28;20118;-60
2022/10/23 04:59:39;;;;;;;3.90;1.40;;;;;;;15.05;100.00;98899.94;4971204;28;20047;-60
2022/10/23 05:02:04;;;;;;;3.67;1.27;;;;;;;15.04;100.00;98898.31;4966438;28;20034;-61
2022/10/23 05:04:30;;;;;;;5.32;1.25;;;;;;;15.05;100.00;98902.53;4956935;28;20042;-59
2022/10/23 05:06:55;;;;;;;3.33;1.10;;;;;;;15.04;100.00;98905.31;4975217;28;20837;-60
2022/10/23 05:09:21;;;;;;;4.60;1.40;;;;;;;14.89;100.00;98886.84;4955714;28;20030;-59
2022/10/23 05:11:48;;;;;;;3.67;1.55;;;;;;;15.02;100.00;98899.44;4970100;28;20034;-60
2022/10/23 05:14:13;;;;;;;4.03;1.48;;;;;;;15.06;100.00;98900.72;4970886;28;20034;-59
2022/10/23 05:16:55;;;;;;;3.60;1.60;;;;;;;15.15;100.00;98897.94;4966203;28;20034;-60
2022/10/23 05:19:23;;;;;;;3.47;1.30;;;;;;;15.14;100.00;98893.69;4974711;28;20125;-60
2022/10/23 05:21:54;;;;;;;3.15;1.17;;;;;;;15.08;100.00;98896.19;4966063;28;20661;-60
2022/10/23 05:24:20;;;;;;;4.85;1.65;;;;;;;15.15;100.00;98908.44;4972297;28;20126;-60
2022/10/23 05:26:46;;;;;;;5.18;1.73;;;;;;;15.13;100.00;98902.53;4975501;28;20034;-59
2022/10/23 05:29:11;;;;;;;4.88;1.50;;;;;;;15.11;100.00;98903.69;4968999;28;20065;-62
2022/10/23 05:31:37;;;;;;;3.85;1.52;;;;;;;15.21;100.00;98914.00;4976991;28;20549;-61
2022/10/23 05:34:02;;;;;;;4.93;1.52;;;;;;;15.24;100.00;98926.72;4977683;28;20784;-59
2022/10/23 05:36:28;;;;;;;3.80;1.35;;;;;;;15.13;100.00;98926.13;4958967;28;20784;-60
2022/10/23 05:38:53;;;;;;;6.28;1.50;;;;;;;15.19;100.00;98922.00;4955940;28;20421;-59
2022/10/23 05:41:19;;;;;;;4.82;1.40;;;;;;;15.16;100.00;98920.53;4977128;28;20031;-62
2022/10/23 05:43:45;;;;;;;5.28;1.38;;;;;;;15.17;100.00;98931.84;4974619;28;20033;-60
2022/10/23 05:46:11;;;;;;;3.25;1.30;;;;;;;15.17;100.00;98926.59;4973433;28;20801;-63
2022/10/23 05:48:36;;;;;;;4.57;1.30;;;;;;;15.18;100.00;98921.16;4961624;28;20033;-61
2022/10/23 05:51:06;;;;;;;5.85;1.95;;;;;;;15.32;100.00;98926.72;4994558;28;20038;-62
2022/10/23 05:53:32;;;;;;;3.95;1.50;;;;;;;15.21;100.00;98906.94;4976377;28;20030;-60
2022/10/23 05:56:05;;;;;;;5.47;1.40;;;;;;;15.25;100.00;98910.84;4963777;28;20027;-60
2022/10/23 05:58:31;;;;;;;6.95;1.40;;;;;;;15.26;100.00;98909.03;4983618;28;20133;-60
2022/10/23 06:00:56;;;;;;;3.80;1.40;;;;;;;15.22;100.00;98902.50;4970235;28;20660;-60
2022/10/23 06:03:22;;;;;;;3.58;1.33;;;;;;;15.17;100.00;98916.13;4987173;28;20031;-60
2022/10/23 06:05:50;;;;;;;3.85;1.30;;;;;;;15.14;100.00;98901.53;4984853;28;20368;-61
2022/10/23 06:08:16;;;;;;;4.78;1.63;;;;;;;14.87;100.00;98871.31;4959869;28;20057;-60
2022/10/23 06:10:41;;;;;;;4.93;1.50;;;;;;;15.08;100.00;98910.06;4975582;28;20465;-60
2022/10/23 06:13:07;;;;;;;3.45;1.45;;;;;;;15.18;100.00;98921.16;4990308;28;20125;-62
2022/10/23 06:15:32;;;;;;;3.33;1.20;;;;;;;15.16;100.00;98925.75;4988475;28;20031;-61
2022/10/23 06:18:02;;;;;;;4.82;1.40;;;;;;;15.21;100.00;98943.63;4972076;28;20540;-60
2022/10/23 06:20:28;;;;;;;3.92;1.35;;;;;;;15.14;100.00;98953.94;4965471;28;20045;-61
2022/10/23 06:22:53;;;;;;;5.03;1.30;;;;;;;15.14;100.00;98940.81;4975760;28;20027;-63
2022/10/23 06:25:19;;;;;;;4.00;1.30;;;;;;;15.24;100.00;98952.94;4978432;28;20046;-59
2022/10/23 06:27:44;;;;;;;4.20;1.30;;;;;;;15.26;100.00;98951.78;4977062;28;20492;-60
2022/10/23 06:30:10;;;;;;;5.78;1.50;;;;;;;15.19;100.00;98962.09;4962737;28;20393;-60
2022/10/23 06:32:36;;;;;;;3.65;1.33;;;;;;;15.32;100.00;98976.50;4980808;28;20033;-60
2022/10/23 06:35:02;;;;;;;4.82;1.90;;;;;;;15.31;100.00;98965.19;4967909;28;20038;-61
2022/10/23 06:37:27;;;;;;;5.65;1.80;;;;;;;15.33;100.00;98971.09;4972138;28;20678;-59
2022/10/23 06:39:53;;;;;;;5.18;1.67;;;;;;;15.02;100.00;98934.28;4977283;28;20045;-60
2022/10/23 06:42:18;;;;;;;5.90;1.55;;;;;;;15.30;100.00;98974.06;4959536;28;20031;-60
2022/10/23 06:44:43;;;;;;;3.95;1.38;;;;;;;15.32;100.00;98981.75;4977243;28;20069;-60
2022/10/23 06:47:09;;;;;;;2.70;1.15;;;;;;;15.28;100.00;98983.06;4959450;28;20065;-61
2022/10/23 06:49:35;;;;;;;3.60;1.20;;;;;;;14.95;100.00;98931.53;4968403;28;20062;-61
2022/10/23 06:52:00;;;;;;;3.63;1.27;;;;;;;15.08;100.00;98949.34;4977010;28;20026;-61
2022/10/23 06:54:26;;;;;;;3.40;1.40;;;;;;;15.33;100.00;98983.38;4974097;28;20041;-58
2022/10/23 06:56:52;;;;;;;4.72;1.10;;;;;;;15.29;100.00;98987.31;4990336;28;20038;-60
2022/10/23 06:59:18;;;;;;;13.73;2.50;;;;;;;15.26;100.00;98988.47;4959996;28;20046;-59
2022/10/23 07:01:44;;;;;;;3.72;1.00;;;;;;;15.01;100.00;98945.75;4970335;28;20058;-63
2022/10/23 07:04:12;;;;;;;3.50;1.27;;;;;;;14.95;100.00;98935.97;4973041;28;20046;-61
2022/10/23 07:06:37;;;;;;;2.45;0.90;;;;;;;15.14;100.00;98974.88;4969890;28;20049;-62
2022/10/23 07:09:03;;;;;;;3.70;1.30;;;;;;;15.16;100.00;98980.75;4974554;28;20038;-63
2022/10/23 07:11:29;;;;;;;4.32;1.38;;;;;;;15.17;100.00;98979.78;4969828;28;20034;-62
2022/10/23 07:13:54;;;;;;;4.20;1.23;;;;;;;15.13;100.00;98980.28;4979529;28;20053;-60
2022/10/23 07:16:22;;;;;;;5.00;1.40;;;;;;;15.23;100.00;98993.22;4964730;28;20030;-60
2022/10/23 07:18:49;;;;;;;3.97;1.50;;;;;;;15.29;100.00;98997.78;4972849;28;20770;-62
2022/10/23 07:21:15;;;;;;;5.13;1.30;;;;;;;15.30;100.00;99008.09;4953062;28;20774;-59
2022/10/23 07:23:40;;;;;;;3.22;1.23;;;;;;;15.15;100.00;98984.38;4968767;28;20812;-62
2022/10/23 07:26:15;;;;;;;3.85;1.40;;;;;;;15.36;100.00;99022.34;4991243;28;20030;-62
2022/10/23 07:28:43;;;;;;;5.30;1.45;;;;;;;15.39;100.00;99032.50;4963978;28;20845;-60
2022/10/23 07:31:10;;;;;;;5.38;1.33;;;;;;;15.37;100.00;99034.47;4975211;28;20037;-58
2022/10/23 07:33:35;;;;;;;4.88;1.30;;;;;;;15.29;100.00;99023.97;4963182;28;20041;-59
2022/10/23 07:36:04;;;;;;;4.25;1.40;;;;;;;15.33;100.00;99033.16;4963894;28;20580;-59
2022/10/23 07:38:29;;;;;;;5.82;2.15;;;;;;;15.25;100.00;99030.53;4951575;28;20066;-62
2022/10/23 07:40:58;;;;;;;5.18;2.45;;;;;;;15.20;100.00;99017.94;4980517;28;20741;-61
2022/10/23 07:43:24;;;;;;;4.57;1.80;;;;;;;15.27;100.00;99025.94;4978365;28;20054;-59
2022/10/23 07:45:50;;;;;;;4.07;1.52;;;;;;;15.23;100.00;99030.69;4972746;28;20492;-58
2022/10/23 07:48:16;;;;;;;7.65;3.42;;;;;;;15.03;100.00;98990.13;4967194;28;20034;-60
2022/10/23 07:50:41;;;;;;;5.57;2.40;;;;;;;15.27;100.00;99028.56;4954732;28;20045;-60
2022/10/23 07:53:19;;;;;;;10.10;4.00;;;;;;;15.38;100.00;99038.72;4954649;28;20038;-61
2022/10/23 07:55:52;;;;;;;7.13;3.03;;;;;;;15.40;100.00;99041.16;4987007;28;20023;-59
2022/10/23 07:58:18;;;;;;;7.53;2.63;;;;;;;15.46;100.00;99045.75;4968424;28;20144;-59
2022/10/23 08:00:44;;;;;;;5.32;1.48;;;;;;;15.46;100.00;99050.97;4974387;28;20521;-59
2022/10/23 08:03:11;;;;;;;4.13;1.40;;;;;;;15.48;100.00;99042.00;4958887;28;20041;-61
2022/10/23 08:05:37;;;;;;;4.35;1.40;;;;;;;15.27;100.00;99050.34;4972447;28;20035;-59
2022/10/23 08:08:03;;;;;;;5.57;1.83;;;;;;;15.28;100.00;99043.31;4975097;28;20036;-59
2022/10/23 08:10:28;;;;;;;5.22;2.33;;;;;;;15.30;100.00;99039.53;4971173;28;20046;-60
2022/10/23 08:12:54;;;;;;;6.75;1.75;;;;;;;15.31;100.00;99035.91;4970393;28;20023;-61
2022/10/23 08:15:19;;;;;;;8.07;3.78;;;;;;;15.38;100.00;99047.38;4967748;28;20027;-59
2022/10/23 08:17:44;;;;;;;5.85;2.05;;;;;;;15.42;100.00;99054.91;4970995;28;20034;-60
2022/10/23 08:20:12;;;;;;;5.70;1.67;;;;;;;15.43;100.00;99053.94;4954819;28;20045;-64
2022/10/23 08:22:38;;;;;;;5.20;1.50;;;;;;;15.33;100.00;99057.56;4953330;28;20038;-65
2022/10/23 08:25:04;;;;;;;4.13;1.40;;;;;;;15.32;100.00;99055.09;4968632;28;20550;-60
2022/10/23 08:27:29;;;;;;;3.85;1.50;;;;;;;15.35;100.00;99049.50;4973325;28;20035;-61
2022/10/23 08:29:54;;;;;;;4.95;1.50;;;;;;;15.30;100.00;99055.25;4976506;28;20037;-61
2022/10/23 08:32:20;;;;;;;5.20;2.30;;;;;;;15.30;100.00;99063.13;4972035;28;20042;-62
2022/10/23 08:34:45;;;;;;;5.65;1.70;;;;;;;15.27;100.00;99071.31;4970185;28;20038;-59
2022/10/23 08:37:11;;;;;;;4.18;1.40;;;;;;;15.25;100.00;99073.25;4957968;28;20031;-62
2022/10/23 08:39:36;;;;;;;4.80;1.70;;;;;;;15.22;100.00;99075.38;4973157;28;20035;-61
2022/10/23 08:42:02;;;;;;;5.10;2.10;;;;;;;15.19;100.00;99072.13;4968062;28;20034;-61
2022/10/23 08:44:47;;;;;;;6.47;1.55;;;;;;;15.18;100.00;99073.09;4969453;28;20030;-60
2022/10/23 08:47:26;;;;;;;4.85;1.38;;;;;;;14.91;100.00;99034.97;4972634;28;20052;-61
2022/10/23 08:49:59;;;;;;;4.33;1.43;;;;;;;15.22;100.00;99072.78;4970831;28;20081;-60
2022/10/23 08:52:40;;;;;;;4.80;1.60;;;;;;;15.26;100.00;99060.97;4967988;28;20026;-60
2022/10/23 08:55:31;;;;;;;5.50;1.52;;;;;;;15.31;100.00;99049.03;4970818;28;20116;-62
2022/10/23 08:57:57;;;;;;;5.63;1.90;;;;;;;15.32;100.00;99049.88;4978148;28;20065;-61
2022/10/23 09:00:22;;;;;;;4.40;1.92;;;;;;;15.36;100.00;99059.03;4973565;28;20026;-60
2022/10/23 09:02:50;;;;;;;5.05;1.90;;;;;;;15.40;100.00;99064.75;4969344;28;21472;-61
2022/10/23 09:05:18;;;;;;;5.40;1.75;;;;;;;15.36;100.00;99070.31;4979301;28;20030;-61
2022/10/23 09:08:01;;;;;;;4.90;1.80;;;;;;;15.41;100.00;99080.31;4968498;28;20033;-62
2022/10/23 09:10:41;;;;;;;5.15;1.90;;;;;;;15.42;100.00;99076.69;4982672;28;20053;-62
2022/10/23 09:13:39;;;;;;;5.13;1.75;;;;;;;15.42;100.00;99081.13;4973034;28;20104;-61
2022/10/23 09:16:41;;;;;;;4.47;1.80;;;;;;;15.34;100.00;99074.09;4967586;28;20042;-61
2022/10/23 09:19:13;;;;;;;5.75;1.90;;;;;;;15.37;100.00;99077.22;4967056;28;20027;-61
2022/10/23 09:21:39;;;;;;;5.70;2.30;;;;;;;15.18;100.00;99039.03;4981973;28;20039;-61
2022/10/23 09:24:05;;;;;;;4.30;1.80;;;;;;;15.41;100.00;99066.41;4956127;28;20022;-61
2022/10/23 09:26:30;;;;;;;6.28;2.28;;;;;;;15.37;100.00;99069.34;4977042;28;20038;-61
2022/10/23 09:29:05;;;;;;;3.78;1.42;;;;;;;15.43;100.00;99069.69;4971296;28;20114;-61
2022/10/23 09:31:30;;;;;;;4.82;1.75;;;;;;;15.56;100.00;99077.84;4969931;28;20432;-62
2022/10/23 09:33:58;;;;;;;4.95;1.40;;;;;;;15.62;100.00;99065.88;4971554;28;20027;-63
2022/10/23 09:36:26;;;;;;;4.30;1.70;;;;;;;15.63;100.00;99065.72;4967689;28;20033;-61
2022/10/23 09:38:53;;;;;;;3.28;1.30;;;;;;;15.64;100.00;99069.16;4964306;28;20041;-61
2022/10/23 09:41:20;;;;;;;6.07;2.65;;;;;;;15.61;100.00;99075.56;4969326;28;20041;-61
2022/10/23 09:43:46;;;;;;;4.72;2.30;;;;;;;15.56;100.00;99068.16;4968866;28;20026;-61
2022/10/23 09:46:11;;;;;;;6.00;2.58;;;;;;;15.51;100.00;99069.66;4977899;28;20034;-61
2022/10/23 09:48:38;;;;;;;6.95;2.45;;;;;;;15.45;100.00;99054.59;4979102;28;20023;-60
2022/10/23 09:51:15;;;;;;;4.97;1.80;;;;;;;15.49;100.00;99072.44;4974511;28;20030;-60
2022/10/23 09:53:48;;;;;;;4.85;1.60;;;;;;;15.56;100.00;99062.94;4960318;28;20547;-60
2022/10/23 09:56:33;;;;;;;4.45;1.65;;;;;;;15.68;100.00;99059.97;4977693;28;20031;-59
2022/10/23 09:59:05;;;;;;;6.45;1.65;;;;;;;15.76;100.00;99067.84;4969874;28;20114;-60
2022/10/23 10:01:35;;;;;;;4.40;1.30;;;;;;;15.54;100.00;99043.94;4978091;28;20722;-59
2022/10/23 10:04:00;;;;;;;5.20;1.52;;;;;;;15.86;100.00;99091.25;4969497;28;20058;-62
2022/10/23 10:06:29;;;;;;;4.38;1.63;;;;;;;15.53;100.00;99050.19;4970205;28;20414;-62
2022/10/23 10:08:57;;;;;;;5.40;1.40;;;;;;;15.66;100.00;99088.97;4974225;28;20109;-59
2022/10/23 10:11:28;;;;;;;4.30;2.08;;;;;;;15.48;100.00;99055.09;4969908;28;20828;-60
2022/10/23 10:14:28;;;;;;;4.38;1.80;;;;;;;15.61;100.00;99086.03;4972612;28;20184;-60
2022/10/23 10:17:00;;;;;;;;;;;;;;;15.66;100.00;99075.88;4970810;28;20056;-60
2022/10/23 10:20:05;;;;;;;4.18;1.27;;;;;;;15.72;100.00;99077.00;4970678;28;19917;-61
2022/10/23 10:22:41;;;;;;;4.97;1.95;;;;;;;15.72;100.00;99077.00;4954980;28;20035;-61
2022/10/23 10:25:17;;;;;;;4.35;1.27;;;;;;;15.68;100.00;99066.03;4972380;28;20711;-60
2022/10/23 10:28:02;;;;;;;4.93;1.88;;;;;;;15.69;100.00;99072.91;4974787;28;20038;-61
2022/10/23 10:30:52;;;;;;;4.28;1.52;;;;;;;15.69;100.00;99062.41;4975268;28;20424;-61
2022/10/23 10:33:28;;;;;;;4.65;1.60;;;;;;;15.74;100.00;99064.59;4978494;28;20034;-59
2022/10/23 10:36:00;;;;;;;4.00;1.30;;;;;;;15.76;100.00;99062.63;4962325;28;20113;-60
2022/10/23 10:39:04;;;;;;;4.53;1.73;;;;;;;15.73;100.00;99062.91;4978770;28;20582;-60
2022/10/23 10:42:13;;;;;;;5.57;2.00;;;;;;;15.65;100.00;99074.22;4974102;28;20738;-59
2022/10/23 10:44:50;;;;;;;4.43;1.70;;;;;;;15.65;100.00;99057.69;4975401;28;20034;-60
2022/10/23 10:47:32;;;;;;;5.65;2.60;;;;;;;15.76;100.00;99063.41;4973494;28;20293;-60
2022/10/23 10:50:16;;;;;;;5.50;1.80;;;;;;;15.33;100.00;98988.59;4959354;28;20030;-58
2022/10/23 10:52:45;;;;;;;4.20;1.70;;;;;;;15.71;100.00;99049.97;4973457;28;20057;-61
2022/10/23 10:55:34;;;;;;;4.55;1.80;;;;;;;15.66;100.00;99022.63;4972153;28;20081;-60
2022/10/23 10:58:15;;;;;;;5.83;2.37;;;;;;;15.79;100.00;99057.03;4970157;28;20512;-61
2022/10/23 11:00:42;;;;;;;5.13;2.53;;;;;;;15.61;100.00;99031.00;4979449;28;20069;-61
2022/10/23 11:03:23;;;;;;;6.22;2.00;;;;;;;15.78;100.00;99065.06;4974865;28;20057;-60
2022/10/23 11:05:49;;;;;;;4.88;1.90;;;;;;;15.57;100.00;99040.19;4969920;28;20404;-61
2022/10/23 11:08:34;;;;;;;5.38;1.98;;;;;;;15.86;100.00;99070.28;4969936;28;20031;-61
2022/10/23 11:11:07;;;;;;;4.25;1.92;;;;;;;15.86;100.00;99042.28;4977462;28;20038;-60
2022/10/23 11:13:39;;;;;;;4.78;1.65;;;;;;;15.88;100.00;99035.06;4969314;28;20481;-59
2022/10/23 11:16:18;;;;;;;5.25;1.60;;;;;;;15.84;100.00;99043.41;4982485;28;20035;-60
2022/10/23 11:18:55;;;;;;;7.78;1.85;;;;;;;15.82;100.00;99046.19;4976010;28;20072;-59
2022/10/23 11:21:29;;;;;;;5.30;1.80;;;;;;;15.79;100.00;99043.09;4975113;28;20031;-60
2022/10/23 11:24:38;;;;;;;5.53;1.80;;;;;;;15.83;100.00;99047.03;4969165;28;20031;-59
2022/10/23 11:27:18;;;;;;;4.53;2.15;;;;;;;15.81;100.00;99028.84;4973253;28;20034;-60
2022/10/23 11:29:50;;;;;;;4.85;1.95;;;;;;;15.97;100.00;99043.69;4973360;28;20026;-60
2022/10/23 11:32:40;;;;;;;7.40;1.85;;;;;;;15.69;100.00;99009.19;4972302;28;20124;-59
2022/10/23 11:35:36;;;;;;;6.78;2.45;;;;;;;15.91;100.00;99034.69;4973083;28;20034;-61
2022/10/23 11:38:18;;;;;;;5.38;1.83;;;;;;;15.77;100.00;98993.47;4975137;28;20104;-61
2022/10/23 11:40:46;;;;;;;5.22;2.20;;;;;;;15.72;100.00;98966.91;4986471;28;20034;-60